Tylerton, Maryland
Current Conditions -  °F | °C
As of 6:53 PM on Wednesday 22 Oct 2014 (Local Time) from KNUI Reporting Station
Light Rain Light Rain  
Wind Chill: 53°   Ceiling: 2100
Heat Index: 53°   Visibility: 9mi
Dew Point: 48°   Wind: 10mph
Humidity: 83%   Direction: 320°NW
Pressure: 29.88"   Gusts: 20mph
Location:  37.97°N, 76.02°W
Report Text: KNUI 222253Z AUTO 32009G17KT 9SM -RA FEW014 BKN021 OVC038 12/09 A2988 RMK AO2 SLP118 P0003 T01170089
Loading
Personal Weather Stations






























Interactive Weather Map
Tropical Storm Tracking
New forecast layout! Learn more

10-Day Weather Forecast

Advertisements
Track Severe Weather on mobile